Flight Track Log - Related Links

Times and Time Zones

All times are in EDT time to prevent confusion due to time zone crossing. See the UAL407 flight status page for this flight to view local times or setup timezone preferences in your user account.

Time Position Orientation Groundspeed Altitude Reporting Facility
EDT Latitude Longitude Course Direction KTS MPH feet Rate Location/Type
Tue 10:07:02 PM 41.9333 -87.9167 261° West 159 183 2,400  Level Chicago TRACON
Tue 10:08:08 PM 41.9000 -87.9500 217° Southwest 151 174 4,300 1,365 Climbing Chicago TRACON
Tue 10:09:00 PM 41.9330 -88.3349 255° West  Level FlightAware Approximate
Tue 10:09:49 PM 41.8719 -88.0642 252° West 237 273 6,200  Level Chicago Center
Tue 10:10:00 PM 41.9151 -88.4799 261° West  Level FlightAware Approximate
Tue 10:10:50 PM 41.8686 -88.1719 268° West 242 278 9,700  Level Chicago Center
Tue 10:11:00 PM 41.8980 -88.6261 261° West  Level FlightAware Approximate
Tue 10:11:52 PM 41.8636 -88.2678 266° West 256 295 12,300  Level Chicago Center
Tue 10:12:00 PM 41.8808 -88.7722 261° West  Level FlightAware Approximate
Tue 10:12:53 PM 41.8578 -88.3694 266° West 271 312 14,700  Level Chicago Center
Tue 10:13:54 PM 41.8508 -88.4781 265° West 291 335 16,100 1,463 Climbing Chicago Center
Tue 10:14:56 PM 41.8461 -88.6050 267° West 337 388 17,700 1,902 Climbing Chicago Center
Tue 10:15:57 PM 41.8403 -88.7361 267° West 353 406 20,000 2,016 Climbing Chicago Center
Tue 10:16:58 PM 41.8361 -88.8736 268° West 367 422 21,800 1,902 Climbing Chicago Center
Tue 10:18:00 PM 41.8364 -89.0403 270° West 376 433 23,900 1,707 Climbing Chicago Center
Tue 10:19:01 PM 41.8344 -89.1819 269° West 382 440 25,300 1,328 Climbing Chicago Center
Tue 10:20:02 PM 41.8328 -89.3286 269° West 395 455 26,600 1,180 Climbing Chicago Center
Tue 10:21:03 PM 41.8325 -89.4789 270° West 404 465 27,700 1,171 Climbing Chicago Center
Tue 10:22:05 PM 41.8286 -89.6308 268° West 410 472 29,000 1,220 Climbing Chicago Center
Tue 10:23:06 PM 41.8267 -89.7856 269° West 417 480 30,200 1,230 Climbing Chicago Center
Tue 10:24:07 PM 41.8261 -89.9497 270° West 422 486 31,500 1,268 Climbing Chicago Center
Tue 10:25:09 PM 41.8236 -90.1039 269° West 418 481 32,800 732 Climbing Chicago Center
Tue 10:26:10 PM 41.8203 -90.2567 268° West 414 476 33,000 98 Climbing Chicago Center
Tue 10:27:11 PM 41.8172 -90.4367 269° West 408 470 33,000  Level Chicago Center
Tue 10:28:12 PM 41.8133 -90.5906 268° West 414 476 33,000  Level Chicago Center
Tue 10:29:14 PM 41.8089 -90.7511 268° West 434 499 33,000  Level Chicago Center
Tue 10:30:15 PM 41.8039 -90.9042 268° West 419 482 33,000  Level Chicago Center
Tue 10:31:16 PM 41.8008 -91.0569 269° West 414 476 33,000  Level Chicago Center
Tue 10:32:18 PM 41.7969 -91.2092 268° West 413 475 33,000  Level Chicago Center
Tue 10:33:19 PM 41.7925 -91.3622 268° West 413 475 33,000  Level Chicago Center
Tue 10:34:20 PM 41.7875 -91.5156 268° West 414 476 33,000  Level Chicago Center
Tue 10:35:22 PM 41.7822 -91.6997 268° West 415 478 33,000 195 Level Chicago Center
Tue 10:36:23 PM 41.7769 -91.8536 267° West 415 478 33,400 492 Climbing Chicago Center
Tue 10:37:24 PM 41.7719 -92.0067 268° West 416 479 34,000 293 Climbing Chicago Center
Tue 10:38:26 PM 41.7661 -92.1578 267° West 412 474 34,000  Level Chicago Center
Tue 10:39:27 PM 41.7608 -92.3083 267° West 409 471 34,000 -49 Level Chicago Center
Tue 10:40:28 PM 41.7558 -92.4581 267° West 406 467 33,900 -49 Descending Chicago Center
Tue 10:41:30 PM 41.7486 -92.6092 266° West 410 472 33,900 65 Level Chicago Center
Tue 10:42:01 PM 41.7461 -92.7025 268° West 411 473 34,000 65 Climbing Minneapolis Center
Tue 10:43:02 PM 41.7386 -92.8692 267° West 409 471 34,000  Level Minneapolis Center
Tue 10:44:03 PM 41.7322 -93.0186 267° West 408 470 34,000  Level Minneapolis Center
Tue 10:45:04 PM 41.7256 -93.1714 267° West 412 474 34,000  Level Minneapolis Center
Tue 10:46:05 PM 41.7186 -93.3217 267° West 411 473 34,000  Level Minneapolis Center
Tue 10:47:06 PM 41.7111 -93.4736 266° West 413 475 34,000  Level Minneapolis Center
Tue 10:48:07 PM 41.7036 -93.6233 266° West 410 472 34,000  Level Minneapolis Center
Tue 10:49:08 PM 41.6964 -93.7725 266° West 408 470 34,000  Level Minneapolis Center
Tue 10:50:10 PM 41.6900 -93.9281 267° West 412 474 34,000  Level Minneapolis Center
Tue 10:51:11 PM 41.6800 -94.1111 266° West 412 474 34,000  Level Minneapolis Center
Tue 10:52:12 PM 41.6714 -94.2636 266° West 412 474 34,000  Level Minneapolis Center
Tue 10:53:13 PM 41.6622 -94.4153 265° West 412 474 34,000 -49 Level Minneapolis Center
Tue 10:54:14 PM 41.6550 -94.5661 266° West 408 470 33,900  Descending Minneapolis Center
Tue 10:55:15 PM 41.6464 -94.7181 266° West 410 472 34,000 49 Climbing Minneapolis Center
Tue 10:56:16 PM 41.6369 -94.8711 265° West 411 473 34,000  Level Minneapolis Center
Tue 10:57:17 PM 41.6294 -95.0236 266° West 411 473 34,000  Level Minneapolis Center
Tue 10:58:18 PM 41.6186 -95.1758 265° West 412 474 34,000  Level Minneapolis Center
Tue 10:59:19 PM 41.6092 -95.3281 265° West 413 475 34,000  Level Minneapolis Center
Tue 11:00:20 PM 41.5997 -95.4806 265° West 413 475 34,000  Level Minneapolis Center
Tue 11:01:21 PM 41.5883 -95.6461 265° West 415 478 34,000  Level Minneapolis Center
Tue 11:02:22 PM 41.5778 -95.8008 265° West 416 479 34,000  Level Minneapolis Center
Tue 11:03:23 PM 41.5664 -95.9547 264° West 418 481 34,000  Level Minneapolis Center
Tue 11:04:24 PM 41.5572 -96.1078 265° West 415 478 34,000  Level Minneapolis Center
Tue 11:05:25 PM 41.5453 -96.2606 264° West 414 476 34,000  Level Minneapolis Center
Tue 11:06:26 PM 41.5350 -96.4219 265° West 412 474 34,000  Level Minneapolis Center
Tue 11:07:27 PM 41.5236 -96.5714 264° West 409 471 34,000  Level Minneapolis Center
Tue 11:08:28 PM 41.5114 -96.7228 264° West 411 473 34,000  Level Minneapolis Center
Tue 11:09:29 PM 41.4994 -96.8756 264° West 415 478 34,000  Level Minneapolis Center
Tue 11:10:30 PM 41.4872 -97.0283 264° West 415 478 34,000  Level Minneapolis Center
Tue 11:11:31 PM 41.4731 -97.2122 264° West 417 480 34,000 393 Level Minneapolis Center
Tue 11:12:32 PM 41.4608 -97.3658 264° West 417 480 34,800 780 Climbing Minneapolis Center
Tue 11:13:34 PM 41.4469 -97.5200 263° West 419 482 35,600 585 Climbing Minneapolis Center
Tue 11:14:35 PM 41.4353 -97.6764 264° West 423 487 36,000 197 Climbing Minneapolis Center
Tue 11:15:36 PM 41.4222 -97.8294 264° West 418 481 36,000  Level Minneapolis Center
Tue 11:16:37 PM 41.4089 -97.9850 264° West 421 484 36,000  Level Minneapolis Center
Tue 11:17:38 PM 41.3958 -98.1325 263° West 420 483 36,000  Level Minneapolis Center
Tue 11:18:39 PM 41.3822 -98.2872 263° West 421 484 36,000 -49 Level Minneapolis Center
Tue 11:19:40 PM 41.3864 -98.4400 272° West 417 480 35,900 -49 Descending Minneapolis Center
Tue 11:20:41 PM 41.4064 -98.6017 279° West 420 483 35,900 49 Level Minneapolis Center
Tue 11:21:42 PM 41.4242 -98.7536 279° West 418 481 36,000 49 Climbing Minneapolis Center
Tue 11:22:43 PM 41.4431 -98.9086 279° West 420 483 36,000  Level Minneapolis Center
Tue 11:23:44 PM 41.4614 -99.0644 279° West 423 487 36,000  Level Minneapolis Center
Tue 11:24:14 PM 41.4756 -99.1758 280° West 428 493 36,000  Level Denver Center
Tue 11:25:15 PM 41.4931 -99.3319 279° West 428 493 36,000  Level Denver Center
Tue 11:26:16 PM 41.5114 -99.4889 279° West 430 495 36,000  Level Denver Center
Tue 11:27:17 PM 41.5286 -99.6447 278° West 428 493 36,000 -49 Level Denver Center
Tue 11:28:18 PM 41.5472 -99.8072 279° West 427 491 35,900  Descending Denver Center
Tue 11:29:19 PM 41.5633 -99.9575 278° West 427 491 36,000 49 Climbing Denver Center
Tue 11:30:20 PM 41.5786 -100.1331 277° West 428 493 36,000  Level Denver Center
Tue 11:31:21 PM 41.5850 -100.2817 273° West 424 488 36,000  Level Denver Center
Tue 11:32:22 PM 41.5900 -100.4306 273° West 422 486 36,000  Level Denver Center
Tue 11:33:23 PM 41.5961 -100.6025 273° West 419 482 36,000  Level Denver Center
Tue 11:34:24 PM 41.6028 -100.7494 274° West 416 479 36,000 -49 Level Denver Center
Tue 11:35:25 PM 41.6106 -100.8956 274° West 415 478 35,900  Descending Denver Center
Tue 11:36:26 PM 41.6211 -101.0653 275° West 413 475 36,000 49 Climbing Denver Center
Tue 11:37:27 PM 41.6325 -101.2125 276° West 416 479 36,000  Level Denver Center
Tue 11:38:28 PM 41.6550 -101.3814 280° West 415 478 36,000  Level Denver Center
Tue 11:39:29 PM 41.6728 -101.5278 279° West 418 481 36,000  Level Denver Center
Tue 11:40:30 PM 41.7017 -101.6722 285° West 422 486 36,000  Level Denver Center
Tue 11:41:31 PM 41.7489 -101.8347 291° West 424 488 36,000 -49 Level Denver Center
Tue 11:42:32 PM 41.7875 -101.9756 290° West 423 487 35,900 -49 Descending Denver Center
Tue 11:43:33 PM 41.8275 -102.1169 291° West 425 489 35,900 49 Level Denver Center
Tue 11:44:34 PM 41.8739 -102.2883 290° West 432 497 36,000 49 Climbing Denver Center
Tue 11:45:35 PM 41.9144 -102.4317 291° West 431 496 36,000  Level Denver Center
Tue 11:46:36 PM 41.9497 -102.5769 288° West 428 493 36,000  Level Denver Center
Tue 11:47:37 PM 41.9733 -102.7508 280° West 424 488 36,000  Level Denver Center
Tue 11:48:38 PM 41.9961 -102.8981 282° West 422 486 36,000  Level Denver Center
Tue 11:49:39 PM 42.0169 -103.0444 281° West 418 481 36,000 -49 Level Denver Center
Tue 11:50:40 PM 42.0575 -103.2083 288° West 415 478 35,900 -49 Descending Denver Center
Tue 11:51:41 PM 42.0964 -103.3458 291° West 412 474 35,900  Level Denver Center
Tue 11:52:42 PM 42.1403 -103.5072 290° West 412 474 35,900 49 Level Denver Center
Tue 11:53:43 PM 42.1772 -103.6472 290° West 414 476 36,000 49 Climbing Denver Center
Tue 11:54:44 PM 42.2147 -103.7883 290° West 416 479 36,000  Level Denver Center
Tue 11:55:45 PM 42.2583 -103.9517 290° West 415 478 36,000  Level Denver Center
Tue 11:56:46 PM 42.2950 -104.0917 290° West 414 476 36,000 -49 Level Denver Center
Tue 11:57:47 PM 42.3322 -104.2317 290° West 413 475 35,900  Descending Denver Center
Tue 11:58:48 PM 42.3747 -104.3958 289° West 414 476 36,000 49 Climbing Denver Center
Tue 11:59:49 PM 42.4108 -104.5392 289° West 415 478 36,000  Level Denver Center
Wed 12:00:50 AM 42.4475 -104.6842 289° West 417 480 36,000  Level Denver Center
Wed 12:01:51 AM 42.4786 -104.8058 289° West 420 483 36,000  Level Denver Center
Wed 12:02:52 AM 42.5286 -104.9925 290° West 412 474 36,000  Level Denver Center
Wed 12:03:53 AM 42.5633 -105.1328 289° West 409 471 36,000  Level Denver Center
Wed 12:04:54 AM 42.5983 -105.2706 289° West 405 466 36,000 -49 Level Denver Center
Wed 12:05:55 AM 42.6383 -105.4322 289° West 405 466 35,900 -49 Descending Denver Center
Wed 12:06:56 AM 42.6731 -105.5686 289° West 400 460 35,900  Level Denver Center
Wed 12:07:57 AM 42.7114 -105.7292 288° West 401 461 35,900 49 Level Denver Center
Wed 12:08:58 AM 42.7472 -105.8706 289° West 411 473 36,000 49 Climbing Denver Center
Wed 12:09:59 AM 42.7808 -106.0106 288° West 408 470 36,000  Level Denver Center
Wed 12:11:00 AM 42.8203 -106.1767 288° West 413 475 36,000  Level Denver Center
Wed 12:12:01 AM 42.8547 -106.3189 288° West 413 475 36,000  Level Denver Center
Wed 12:13:02 AM 42.8883 -106.4600 288° West 410 472 36,000 -49 Level Denver Center
Wed 12:14:03 AM 42.9275 -106.6228 288° West 406 467 35,900 -49 Descending Denver Center
Wed 12:15:04 AM 42.9614 -106.7611 289° West 403 464 35,900  Level Denver Center
Wed 12:16:05 AM 42.9939 -106.8994 288° West 401 461 35,900 50 Level Denver Center
Wed 12:17:05 AM 43.0308 -107.0614 287° West 400 460 36,000 50 Climbing Denver Center
Wed 12:18:06 AM 43.0631 -107.2011 288° West 402 463 36,000  Level Denver Center
Wed 12:19:07 AM 43.0978 -107.3536 287° West 404 465 36,000  Level Denver Center
Wed 12:20:08 AM 43.1300 -107.4942 287° West 405 466 36,000  Level Denver Center
Wed 12:20:52 AM 43.1556 -107.6128 286° West 404 465 36,000  Level Salt Lake Center
Wed 12:21:53 AM 43.1872 -107.7519 287° West 401 461 36,000  Level Salt Lake Center
Wed 12:22:54 AM 43.2192 -107.8908 288° West 398 458 36,000  Level Salt Lake Center
Wed 12:23:55 AM 43.2556 -108.0544 287° West 401 461 36,000  Level Salt Lake Center
Wed 12:24:56 AM 43.2856 -108.1922 287° West 396 456 36,000  Level Salt Lake Center
Wed 12:25:57 AM 43.3167 -108.3325 287° West 399 459 36,000  Level Salt Lake Center
Wed 12:26:58 AM 43.3522 -108.4967 287° West 401 461 36,000  Level Salt Lake Center
Wed 12:27:59 AM 43.3828 -108.6394 286° West 405 466 36,000  Level Salt Lake Center
Wed 12:29:00 AM 43.4186 -108.8061 287° West 407 468 36,000  Level Salt Lake Center
Wed 12:30:01 AM 43.4500 -108.9497 287° West 409 471 36,000  Level Salt Lake Center
Wed 12:31:02 AM 43.4797 -109.0933 286° West 408 470 36,000 -49 Level Salt Lake Center
Wed 12:32:03 AM 43.5144 -109.2592 286° West 405 466 35,900  Descending Salt Lake Center
Wed 12:33:04 AM 43.5450 -109.4050 286° West 410 472 36,000 49 Climbing Salt Lake Center
Wed 12:34:05 AM 43.5742 -109.5467 286° West 407 468 36,000  Level Salt Lake Center
Wed 12:35:06 AM 43.6092 -109.7183 286° West 414 476 36,000  Level Salt Lake Center
Wed 12:36:07 AM 43.6397 -109.8647 286° West 415 478 36,000  Level Salt Lake Center
Wed 12:37:08 AM 43.6697 -110.0097 286° West 410 472 36,000 -49 Level Salt Lake Center
Wed 12:38:09 AM 43.7033 -110.1775 286° West 407 468 35,900  Descending Salt Lake Center
Wed 12:39:10 AM 43.7319 -110.3206 286° West 403 464 36,000 49 Climbing Salt Lake Center
Wed 12:40:11 AM 43.7606 -110.4636 286° West 403 464 36,000  Level Salt Lake Center
Wed 12:41:12 AM 43.7936 -110.6336 285° West 408 470 36,000 -49 Level Salt Lake Center
Wed 12:42:13 AM 43.8219 -110.7750 286° West 402 463 35,900  Descending Salt Lake Center
Wed 12:43:14 AM 43.8503 -110.9203 285° West 406 467 36,000 50 Climbing Salt Lake Center
Wed 12:44:14 AM 43.8817 -111.0897 284° West 406 467 36,000  Level Salt Lake Center
Wed 12:45:15 AM 43.9092 -111.2328 285° West 404 465 36,000 -49 Level Salt Lake Center
Wed 12:46:16 AM 43.9347 -111.3758 284° West 400 460 35,900 -49 Descending Salt Lake Center
Wed 12:47:17 AM 43.9667 -111.5433 285° West 400 460 35,900 49 Level Salt Lake Center
Wed 12:48:18 AM 43.9942 -111.6906 285° West 405 466 36,000 49 Climbing Salt Lake Center
Wed 12:49:19 AM 44.0211 -111.8397 284° West 413 475 36,000  Level Salt Lake Center
Wed 12:50:20 AM 44.0536 -112.0136 285° West 415 478 36,000  Level Salt Lake Center
Wed 12:51:21 AM 44.0792 -112.1592 284° West 406 467 36,000 -50 Level Salt Lake Center
Wed 12:52:21 AM 44.1067 -112.3075 285° West 410 472 35,900 -50 Descending Salt Lake Center
Wed 12:53:22 AM 44.1394 -112.4806 285° West 414 476 35,900 49 Level Salt Lake Center
Wed 12:54:23 AM 44.1678 -112.6289 285° West 414 476 36,000 49 Climbing Salt Lake Center
Wed 12:55:24 AM 44.1936 -112.7775 284° West 413 475 36,000  Level Salt Lake Center
Wed 12:56:25 AM 44.2264 -112.9522 285° West 415 478 36,000  Level Salt Lake Center
Wed 12:57:25 AM 44.2533 -113.1031 284° West 418 481 36,000  Level Salt Lake Center
Wed 12:58:26 AM 44.2817 -113.2536 285° West 417 480 36,000 -49 Level Salt Lake Center
Wed 12:59:27 AM 44.3122 -113.4286 284° West 416 479 35,900 -49 Descending Salt Lake Center
Wed 01:00:28 AM 44.3386 -113.5789 284° West 416 479 35,900  Level Salt Lake Center
Wed 01:01:28 AM 44.3650 -113.7281 284° West 414 476 35,900 50 Level Salt Lake Center
Wed 01:02:29 AM 44.3944 -113.9031 283° West 416 479 36,000 49 Climbing Salt Lake Center
Wed 01:03:30 AM 44.4228 -114.0653 284° West 417 480 36,000  Level Salt Lake Center
Wed 01:04:31 AM 44.4500 -114.2164 284° West 418 481 36,000 -50 Level Salt Lake Center
Wed 01:05:31 AM 44.4764 -114.3653 284° West 414 476 35,900 -50 Descending Salt Lake Center
Wed 01:06:32 AM 44.5056 -114.5406 283° West 414 476 35,900 49 Level Salt Lake Center
Wed 01:07:33 AM 44.5314 -114.6908 284° West 415 478 36,000 49 Climbing Salt Lake Center
Wed 01:08:34 AM 44.5561 -114.8425 283° West 416 479 36,000  Level Salt Lake Center
Wed 01:09:34 AM 44.5825 -114.9936 284° West 417 480 36,000  Level Salt Lake Center
Wed 01:10:35 AM 44.6114 -115.1700 283° West 416 479 36,000  Level Salt Lake Center
Wed 01:11:35 AM 44.6356 -115.3219 283° West 417 480 36,000  Level Salt Lake Center
Wed 01:12:36 AM 44.6603 -115.4722 283° West 416 479 36,000  Level Salt Lake Center
Wed 01:13:37 AM 44.6886 -115.6475 283° West 414 476 36,000  Level Salt Lake Center
Wed 01:14:37 AM 44.7125 -115.7950 283° West 409 471 36,000 -50 Level Salt Lake Center
Wed 01:15:38 AM 44.7392 -115.9656 282° West 404 465 35,900 -50 Descending Salt Lake Center
Wed 01:16:38 AM 44.7617 -116.1106 282° West 401 461 35,900 50 Level Salt Lake Center
Wed 01:17:39 AM 44.7844 -116.2556 283° West 400 460 36,000 49 Climbing Salt Lake Center
Wed 01:18:40 AM 44.8097 -116.4272 282° West 403 464 36,000  Level Salt Lake Center
Wed 01:19:40 AM 44.8325 -116.5742 282° West 403 464 36,000  Level Salt Lake Center
Wed 01:20:41 AM 44.8544 -116.7211 282° West 403 464 36,000  Level Salt Lake Center
Wed 01:21:41 AM 44.8800 -116.8931 282° West 402 463 36,000  Level Salt Lake Center
Wed 01:22:42 AM 44.9008 -117.0408 281° West 402 463 36,000  Level Salt Lake Center
Wed 01:23:26 AM 44.9158 -117.1408 282° West 404 465 36,000  Level Seattle Center
Wed 01:24:26 AM 44.9408 -117.3147 282° West 405 466 36,000  Level Seattle Center
Wed 01:25:27 AM 44.9625 -117.4650 282° West 408 470 36,000  Level Seattle Center
Wed 01:26:27 AM 44.9831 -117.6139 281° West 405 466 36,000  Level Seattle Center
Wed 01:26:44 AM 44.9900 -117.6619 282° West 404 465 36,000  Level Salt Lake Center
Wed 01:27:45 AM 45.0144 -117.8331 281° West 399 459 36,000 -57 Level Salt Lake Center
Wed 01:28:29 AM 45.0281 -117.9300 281° West 396 456 35,900  Descending Seattle Center
Wed 01:29:29 AM 45.0469 -118.0769 280° West 395 455 36,000  Climbing Seattle Center
Wed 01:29:46 AM 45.0544 -118.1272 282° West 395 455 35,900  Descending Salt Lake Center
Wed 01:30:46 AM 45.0747 -118.2772 281° West 392 451 36,000 57 Climbing Salt Lake Center
Wed 01:31:31 AM 45.0903 -118.3969 280° West 390 449 36,000 -171 Level Seattle Center
Wed 01:32:31 AM 45.1100 -118.5450 281° West 386 444 35,700 -595 Descending Seattle Center
Wed 01:33:32 AM 45.1294 -118.6922 281° West 383 441 34,800 -843 Descending Seattle Center
Wed 01:34:32 AM 45.1489 -118.8422 280° West 388 447 34,000 -397 Descending Seattle Center
Wed 01:35:33 AM 45.1692 -118.9942 281° West 393 452 34,000  Level Seattle Center
Wed 01:36:34 AM 45.1886 -119.1447 280° West 393 452 34,000  Level Seattle Center
Wed 01:37:34 AM 45.2064 -119.2947 280° West 389 448 34,000  Level Seattle Center
Wed 01:38:35 AM 45.2256 -119.4475 280° West 394 453 34,000  Level Seattle Center
Wed 01:39:36 AM 45.2442 -119.5972 280° West 390 449 34,000  Level Seattle Center
Wed 01:40:36 AM 45.2611 -119.7456 279° West 385 443 34,000 -50 Level Seattle Center
Wed 01:41:37 AM 45.2792 -119.8953 280° West 389 448 33,900  Descending Seattle Center
Wed 01:42:37 AM 45.2967 -120.0447 280° West 389 448 34,000 -99 Climbing Seattle Center
Wed 01:43:38 AM 45.3183 -120.2258 280° West 390 449 33,700 -1,131 Descending Seattle Center
Wed 01:44:39 AM 45.3356 -120.3758 279° West 389 448 31,700 -2,033 Descending Seattle Center
Wed 01:45:39 AM 45.3528 -120.5222 280° West 382 440 29,600 -2,033 Descending Seattle Center
Wed 01:46:40 AM 45.3675 -120.6642 278° West 368 423 27,600 -1,934 Descending Seattle Center
Wed 01:47:40 AM 45.3836 -120.8033 279° West 361 415 25,700 -1,884 Descending Seattle Center
Wed 01:48:41 AM 45.3981 -120.9386 279° West 349 402 23,800 -1,884 Descending Seattle Center
Wed 01:49:41 AM 45.4133 -121.0675 280° West 335 386 21,900 -1,785 Descending Seattle Center
Wed 01:50:42 AM 45.4261 -121.1950 278° West 327 376 20,200 -1,800 Descending Seattle Center
Wed 01:51:11 AM 45.4375 -121.2611 284° West 325 374 19,200 -1,770 Descending Seattle Center
Wed 01:51:43 AM 45.4414 -121.3147 276° West 311 358 18,400 -1,770 Descending Seattle Center
Wed 01:52:12 AM 45.4536 -121.3869 284° West 305 351 17,400 -1,800 Descending Seattle Center
Wed 01:52:43 AM 45.4564 -121.4356 275° West 310 357 16,600 -1,800 Descending Seattle Center
Wed 01:53:12 AM 45.4678 -121.5047 283° West 301 346 15,600 -1,869 Descending Seattle Center
Wed 01:53:44 AM 45.4692 -121.5511 272° West 300 345 14,700 -2,239 Descending Seattle Center
Wed 01:54:19 AM 45.4817 -121.6317 283° West 304 350 13,100 -2,100 Descending Seattle Center
Wed 01:54:44 AM 45.4847 -121.6706 276° West 306 352 12,600 -1,800 Descending Seattle Center
Wed 01:55:19 AM 45.4961 -121.7522 281° West 308 354 11,300 -1,770 Descending Seattle Center
Wed 01:55:45 AM 45.4978 -121.7883 274° West 304 350 10,800 -1,279 Descending Seattle Center
Wed 01:56:20 AM 45.5039 -121.8725 276° West 275 316 10,000 -1,100 Descending Seattle Center
Wed 01:56:45 AM 45.5022 -121.8992 265° West 282 325 9,700 -1,869 Descending Seattle Center
Wed 01:57:21 AM 45.5047 -121.9803 273° West 265 305 8,100 -2,557 Descending Seattle Center
Wed 01:57:46 AM 45.5053 -122.0175 271° West 265 305 7,100 -2,100 Descending Seattle Center
Wed 01:58:21 AM 45.5067 -122.0844 272° West 263 303 6,000 -1,600 Descending Seattle Center
Wed 01:58:46 AM 45.5081 -122.1228 273° West 267 307 5,500 -492 Descending Seattle Center
Wed 01:59:22 AM 45.5089 -122.1792 271° West 236 272 5,500 -295 Level Seattle Center
Wed 01:59:47 AM 45.5100 -122.2108 273° West 235 270 5,200 -556 Descending Seattle Center
Wed 02:00:16 AM 45.5103 -122.2497 271° West 188 216 5,000 -800 Descending Seattle Center
Wed 02:00:47 AM 45.5117 -122.2844 273° West 196 226 4,400 -1,200 Descending Seattle Center
Wed 02:01:11 AM 45.5111 -122.3172 269° West 183 211 3,900 -1,082 Descending Seattle Center
Wed 02:01:48 AM 45.5125 -122.3589 273° West 189 217 3,300 -873 Descending Seattle Center
Wed 02:02:06 AM 45.5128 -122.3783 271° West 180 207 3,100 -900 Descending Seattle Center
Wed 02:02:48 AM 45.5244 -122.4175 293° West 161 185 2,400 -1,000 Descending Seattle Center
Wed 02:03:06 AM 45.5308 -122.4356 297° West 131 151 2,100 -689 Descending Seattle Center
Wed 02:03:49 AM 45.5436 -122.4617 305° West 143 165 1,700 -590 Descending Seattle Center
Wed 02:04:07 AM 45.5481 -122.4778 292° West 117 135 1,500 -600 Descending Seattle Center
Wed 02:04:49 AM 45.5594 -122.5022 304° West 128 147 1,100 -575 Descending Seattle Center
Wed 02:05:20 AM 45.5658 -122.5231 294° West 119 137 800 -700 Descending Seattle Center
Wed 02:05:49 AM 45.5750 -122.5447 301° West 123 142 400 -467 Descending Seattle Center
Wed 02:06:50 AM 45.5917 -122.5847 301° West 123 142 100 -295 Descending Seattle Center

Login

Don't have an account? Register now (free) for customized features, flight alerts, and more!